createdAt,value
2023-04-28T00:00:30.826Z,17.03
2023-04-28T00:02:59.019Z,17.03
2023-04-28T00:05:28.400Z,17.06
2023-04-28T00:07:56.389Z,17.06
2023-04-28T00:10:24.260Z,17.09
2023-04-28T00:12:52.187Z,17.06
2023-04-28T00:15:20.175Z,17.03
2023-04-28T00:17:48.104Z,17.02
2023-04-28T00:20:16.009Z,17.01
2023-04-28T00:22:45.276Z,17.00
2023-04-28T00:25:13.135Z,17.00
2023-04-28T00:27:40.990Z,16.99
2023-04-28T00:30:10.194Z,17.01
2023-04-28T00:32:38.221Z,17.01
2023-04-28T00:35:07.068Z,16.96
2023-04-28T00:37:37.543Z,16.94
2023-04-28T00:40:08.362Z,16.94
2023-04-28T00:42:36.288Z,16.96
2023-04-28T00:45:06.578Z,16.97
2023-04-28T00:47:34.759Z,16.97
2023-04-28T00:50:02.717Z,16.95
2023-04-28T00:52:30.733Z,16.95
2023-04-28T00:54:58.691Z,16.97
2023-04-28T00:57:28.018Z,16.96
2023-04-28T00:59:56.068Z,16.93
2023-04-28T01:02:24.042Z,16.92
2023-04-28T01:04:52.690Z,16.95
2023-04-28T01:07:21.129Z,16.91
2023-04-28T01:09:49.204Z,16.88
2023-04-28T01:12:17.089Z,16.83
2023-04-28T01:14:46.355Z,16.79
2023-04-28T01:17:14.233Z,16.76
2023-04-28T01:19:42.118Z,16.71
2023-04-28T01:22:10.820Z,16.66
2023-04-28T01:24:40.207Z,16.66
2023-04-28T01:27:08.062Z,16.63
2023-04-28T01:29:35.986Z,16.61
2023-04-28T01:32:03.887Z,16.59
2023-04-28T01:34:31.831Z,16.58
2023-04-28T01:36:59.672Z,16.55
2023-04-28T01:39:27.548Z,16.53
2023-04-28T01:41:56.809Z,16.51
2023-04-28T01:44:24.681Z,16.51
2023-04-28T01:46:52.534Z,16.47
2023-04-28T01:49:20.378Z,16.46
2023-04-28T01:51:48.239Z,16.46
2023-04-28T01:54:16.518Z,16.42
2023-04-28T01:56:44.669Z,16.42
2023-04-28T01:59:14.197Z,16.42
2023-04-28T02:01:42.078Z,16.39
2023-04-28T02:04:10.063Z,16.40
2023-04-28T02:06:38.032Z,16.42
2023-04-28T02:09:05.865Z,16.41
2023-04-28T02:11:33.750Z,16.37
2023-04-28T02:14:01.657Z,16.34
2023-04-28T02:16:30.924Z,16.32
2023-04-28T02:18:58.868Z,16.29
2023-04-28T02:21:27.922Z,16.25
2023-04-28T02:23:56.066Z,16.22
2023-04-28T02:26:24.427Z,16.22
2023-04-28T02:28:52.301Z,16.19
2023-04-28T02:31:20.240Z,16.20
2023-04-28T02:33:49.539Z,16.16
2023-04-28T02:36:17.673Z,16.15
2023-04-28T02:38:45.555Z,16.13
2023-04-28T02:41:15.032Z,16.12
2023-04-28T02:43:42.915Z,16.09
2023-04-28T02:46:11.321Z,16.07
2023-04-28T02:48:39.284Z,16.03
2023-04-28T02:51:08.541Z,16.07
2023-04-28T02:53:36.380Z,16.04
2023-04-28T02:56:04.714Z,16.03
2023-04-28T02:58:32.551Z,16.01
2023-04-28T03:01:00.585Z,16.01
2023-04-28T03:03:28.726Z,15.98
2023-04-28T03:05:56.968Z,15.96
2023-04-28T03:08:26.777Z,15.93
2023-04-28T03:10:54.728Z,15.92
2023-04-28T03:13:22.659Z,15.89
2023-04-28T03:15:51.222Z,15.87
2023-04-28T03:18:19.245Z,15.84
2023-04-28T03:20:47.123Z,15.83
2023-04-28T03:23:14.996Z,15.81
2023-04-28T03:25:44.295Z,15.80
2023-04-28T03:28:12.125Z,15.79
2023-04-28T03:30:39.974Z,15.80
2023-04-28T03:33:07.954Z,15.81
2023-04-28T03:35:35.881Z,15.81
2023-04-28T03:38:03.801Z,15.82
2023-04-28T03:40:31.724Z,15.83
2023-04-28T03:43:03.928Z,15.83
2023-04-28T03:45:32.618Z,15.85
2023-04-28T03:48:00.546Z,15.87
2023-04-28T03:50:28.470Z,15.88
2023-04-28T03:52:56.407Z,15.89
2023-04-28T03:55:24.305Z,15.88
2023-04-28T03:57:52.140Z,15.93
2023-04-28T04:00:21.553Z,15.93
2023-04-28T04:02:49.704Z,15.91
2023-04-28T04:05:18.094Z,15.93
2023-04-28T04:07:46.088Z,15.94
2023-04-28T04:10:13.993Z,15.94
2023-04-28T04:12:41.840Z,15.95
2023-04-28T04:15:10.806Z,15.95
2023-04-28T04:17:40.083Z,15.95
2023-04-28T04:20:09.391Z,15.92
2023-04-28T04:22:37.438Z,15.93
2023-04-28T04:25:06.051Z,15.90
2023-04-28T04:27:33.891Z,15.91
2023-04-28T04:30:02.216Z,15.85
2023-04-28T04:32:30.144Z,15.85
2023-04-28T04:34:59.397Z,15.85
2023-04-28T04:37:27.483Z,15.85
2023-04-28T04:39:55.346Z,15.88
2023-04-28T04:42:25.809Z,15.86
2023-04-28T04:44:53.986Z,15.90
2023-04-28T04:47:21.824Z,15.85
2023-04-28T04:49:49.999Z,15.86
2023-04-28T04:52:19.515Z,15.76
2023-04-28T04:54:47.456Z,15.85
2023-04-28T04:57:15.365Z,15.86
2023-04-28T04:59:43.213Z,15.83
2023-04-28T05:02:11.338Z,15.88
2023-04-28T05:04:39.583Z,15.90
2023-04-28T05:07:07.488Z,15.92
2023-04-28T05:09:36.747Z,15.92
2023-04-28T05:12:04.933Z,15.94
2023-04-28T05:14:32.815Z,15.96
2023-04-28T05:17:00.777Z,15.98
2023-04-28T05:19:28.649Z,15.98
2023-04-28T05:21:56.622Z,16.00
2023-04-28T05:24:24.685Z,15.99
2023-04-28T05:26:54.436Z,16.02
2023-04-28T05:29:22.565Z,16.04
2023-04-28T05:31:50.501Z,16.05
2023-04-28T05:34:18.530Z,16.09
2023-04-28T05:36:46.596Z,16.10
2023-04-28T05:39:14.450Z,16.12
2023-04-28T05:41:42.390Z,16.11
2023-04-28T05:44:11.866Z,16.13
2023-04-28T05:46:39.975Z,16.14
2023-04-28T05:49:07.895Z,16.14
2023-04-28T05:51:35.997Z,16.17
2023-04-28T05:54:03.890Z,16.20
2023-04-28T05:56:31.791Z,16.22
2023-04-28T05:59:02.151Z,16.22
2023-04-28T06:01:31.441Z,16.22
2023-04-28T06:03:59.849Z,16.23
2023-04-28T06:06:28.431Z,16.25
2023-04-28T06:08:56.275Z,16.26
2023-04-28T06:11:24.163Z,16.29
2023-04-28T06:13:52.238Z,16.30
2023-04-28T06:16:20.654Z,16.30
2023-04-28T06:18:50.066Z,16.29
2023-04-28T06:21:18.103Z,16.31
2023-04-28T06:23:46.092Z,16.28
2023-04-28T06:26:14.470Z,16.28
2023-04-28T06:28:43.678Z,16.31
2023-04-28T06:31:11.602Z,16.35
2023-04-28T06:33:39.489Z,16.38
2023-04-28T06:36:09.322Z,16.38
2023-04-28T06:38:37.566Z,16.41
2023-04-28T06:41:05.633Z,16.44
2023-04-28T06:43:33.592Z,16.47
2023-04-28T06:46:01.576Z,16.47
2023-04-28T06:48:29.442Z,16.46
2023-04-28T06:50:57.330Z,16.44
2023-04-28T06:53:27.228Z,16.50
2023-04-28T06:55:55.093Z,16.52
2023-04-28T06:58:22.970Z,16.55
2023-04-28T07:00:50.943Z,16.56
2023-04-28T07:03:18.961Z,16.58
2023-04-28T07:05:46.921Z,16.61
2023-04-28T07:08:14.979Z,16.65
2023-04-28T07:10:44.593Z,16.65
2023-04-28T07:13:12.645Z,16.67
2023-04-28T07:15:40.680Z,16.62
2023-04-28T07:18:08.590Z,16.64
2023-04-28T07:20:36.542Z,16.67
2023-04-28T07:23:04.448Z,16.66
2023-04-28T07:25:32.632Z,16.65
2023-04-28T07:28:04.322Z,16.62
2023-04-28T07:30:32.221Z,16.61
2023-04-28T07:33:00.134Z,16.59
2023-04-28T07:35:28.218Z,16.60
2023-04-28T07:37:56.201Z,16.56
2023-04-28T07:40:24.246Z,16.58
2023-04-28T07:42:52.570Z,16.54
2023-04-28T07:45:22.034Z,16.53
2023-04-28T07:47:49.973Z,16.54
2023-04-28T07:50:18.165Z,16.52
2023-04-28T07:52:46.278Z,16.57
2023-04-28T07:55:14.260Z,16.58
2023-04-28T07:57:42.471Z,16.61
2023-04-28T08:00:12.120Z,16.60
2023-04-28T08:02:41.601Z,16.59
2023-04-28T08:05:10.759Z,16.60
2023-04-28T08:07:38.893Z,16.61
2023-04-28T08:10:07.828Z,16.65
2023-04-28T08:12:35.793Z,16.61
2023-04-28T08:15:04.026Z,16.64
2023-04-28T08:17:32.158Z,16.64
2023-04-28T08:20:01.431Z,16.67
2023-04-28T08:22:29.328Z,16.73
2023-04-28T08:24:57.188Z,16.77
2023-04-28T08:27:25.839Z,16.81
2023-04-28T08:29:53.879Z,16.79
2023-04-28T08:32:21.876Z,16.79
2023-04-28T08:34:50.113Z,16.75
2023-04-28T08:37:23.458Z,16.75
2023-04-28T08:39:52.763Z,16.82
2023-04-28T08:42:20.794Z,16.84
2023-04-28T08:44:49.237Z,16.84
2023-04-28T08:47:20.135Z,16.88
2023-04-28T08:49:51.006Z,16.84
2023-04-28T08:52:19.221Z,16.84
2023-04-28T08:54:51.505Z,16.86
2023-04-28T08:57:22.423Z,16.81
2023-04-28T09:00:10.593Z,16.85
2023-04-28T09:02:42.644Z,16.87
2023-04-28T09:05:13.134Z,16.90
2023-04-28T09:07:57.309Z,16.95
2023-04-28T09:10:30.348Z,16.95
2023-04-28T09:12:58.835Z,17.00
2023-04-28T09:15:27.872Z,16.90
2023-04-28T09:17:55.947Z,16.85
2023-04-28T09:20:24.556Z,16.79
2023-04-28T09:23:02.219Z,16.78
2023-04-28T09:25:33.079Z,16.69
2023-04-28T09:28:01.237Z,16.84
2023-04-28T09:30:40.114Z,16.96
2023-04-28T09:33:18.523Z,17.01
2023-04-28T09:35:52.917Z,16.98
2023-04-28T09:38:21.379Z,17.05
2023-04-28T09:40:56.164Z,17.15
2023-04-28T09:43:34.179Z,17.21
2023-04-28T09:46:05.784Z,17.23
2023-04-28T09:48:36.764Z,17.25
2023-04-28T09:51:06.163Z,17.24
2023-04-28T09:53:35.517Z,17.27
2023-04-28T09:56:06.515Z,17.29
2023-04-28T09:58:35.564Z,17.33
2023-04-28T10:01:03.688Z,17.39
2023-04-28T10:03:33.666Z,17.43
2023-04-28T10:06:01.961Z,17.43
2023-04-28T10:08:29.868Z,17.43
2023-04-28T10:11:03.680Z,17.45
2023-04-28T10:13:33.009Z,17.49
2023-04-28T10:16:00.874Z,17.53
2023-04-28T10:18:28.769Z,17.58
2023-04-28T10:20:58.790Z,17.64
2023-04-28T10:23:47.033Z,17.68
2023-04-28T10:26:15.618Z,17.74
2023-04-28T10:28:48.566Z,17.78
2023-04-28T10:31:17.623Z,17.82
2023-04-28T10:33:45.777Z,17.86
2023-04-28T10:36:38.549Z,17.91
2023-04-28T10:39:10.726Z,18.00
2023-04-28T10:41:38.715Z,18.08
2023-04-28T10:44:44.131Z,18.20
2023-04-28T10:47:13.229Z,18.25
2023-04-28T10:50:09.454Z,18.29
2023-04-28T10:52:52.416Z,18.30
2023-04-28T10:55:36.312Z,18.38
2023-04-28T10:58:32.538Z,18.43
2023-04-28T11:01:29.836Z,18.50
2023-04-28T11:04:04.984Z,18.54
2023-04-28T11:06:34.753Z,18.62
2023-04-28T11:09:03.394Z,18.78
2023-04-28T11:11:32.652Z,18.90
2023-04-28T11:14:33.821Z,19.01
2023-04-28T11:17:04.230Z,19.07
2023-04-28T11:19:33.149Z,19.09
2023-04-28T11:22:02.114Z,19.15
2023-04-28T11:24:30.625Z,19.26
2023-04-28T11:26:58.713Z,19.41
2023-04-28T11:29:33.395Z,19.49
2023-04-28T11:32:02.986Z,19.49
2023-04-28T11:34:30.907Z,19.52
2023-04-28T11:36:58.824Z,19.60
2023-04-28T11:39:28.537Z,19.67
2023-04-28T11:41:56.429Z,19.74
2023-04-28T11:44:25.081Z,19.79
2023-04-28T11:46:56.001Z,19.79
2023-04-28T11:49:25.614Z,19.77
2023-04-28T11:51:53.661Z,19.83
2023-04-28T11:54:22.174Z,19.81
2023-04-28T11:56:50.120Z,19.84
2023-04-28T11:59:18.224Z,19.86
2023-04-28T12:01:47.796Z,19.87
2023-04-28T12:04:16.151Z,19.96
2023-04-28T12:06:45.558Z,19.94
2023-04-28T12:09:17.220Z,19.82
2023-04-28T12:11:57.909Z,19.72
2023-04-28T12:14:26.435Z,19.67
2023-04-28T12:16:54.304Z,19.66
2023-04-28T12:19:22.181Z,19.66
2023-04-28T12:22:07.579Z,19.66
2023-04-28T12:24:36.310Z,19.61
2023-04-28T12:27:21.758Z,19.55
2023-04-28T12:29:49.794Z,19.50
2023-04-28T12:32:17.864Z,19.63
2023-04-28T12:34:46.415Z,19.73
2023-04-28T12:37:15.978Z,19.87
2023-04-28T12:39:44.213Z,20.05
2023-04-28T12:42:12.303Z,20.25
2023-04-28T12:44:40.924Z,20.45
2023-04-28T12:47:10.789Z,20.59
2023-04-28T12:49:38.798Z,20.78
2023-04-28T12:52:06.950Z,20.87
2023-04-28T12:54:36.819Z,21.08
2023-04-28T12:57:05.404Z,21.14
2023-04-28T12:59:33.579Z,21.22
2023-04-28T13:02:01.499Z,21.25
2023-04-28T13:04:30.046Z,21.28
2023-04-28T13:06:58.552Z,21.22
2023-04-28T13:09:26.485Z,21.07
2023-04-28T13:11:55.740Z,20.81
2023-04-28T13:14:24.104Z,20.63
2023-04-28T13:16:52.536Z,20.38
2023-04-28T13:19:20.448Z,20.22
2023-04-28T13:21:48.396Z,20.15
2023-04-28T13:24:16.338Z,20.07
2023-04-28T13:26:45.340Z,20.03
2023-04-28T13:29:14.830Z,20.11
2023-04-28T13:31:43.127Z,20.29
2023-04-28T13:34:16.068Z,20.38
2023-04-28T13:36:44.490Z,20.45
2023-04-28T13:39:14.833Z,20.51
2023-04-28T13:41:43.258Z,20.51
2023-04-28T13:44:11.382Z,20.57
2023-04-28T13:46:40.671Z,20.68
2023-04-28T13:49:08.594Z,20.85
2023-04-28T13:51:36.479Z,20.90
2023-04-28T13:54:05.440Z,20.90
2023-04-28T13:56:33.441Z,20.91
2023-04-28T13:59:01.426Z,20.93
2023-04-28T14:01:29.508Z,20.99
2023-04-28T14:03:59.104Z,21.14
2023-04-28T14:06:27.903Z,21.26
2023-04-28T14:08:55.889Z,21.17
2023-04-28T14:11:23.830Z,21.15
2023-04-28T14:13:52.289Z,21.18
2023-04-28T14:16:20.401Z,21.36
2023-04-28T14:18:48.350Z,21.45
2023-04-28T14:21:17.661Z,21.67
2023-04-28T14:23:45.605Z,22.02
2023-04-28T14:26:13.499Z,22.28
2023-04-28T14:28:42.277Z,22.38
2023-04-28T14:31:10.601Z,22.41
2023-04-28T14:33:38.527Z,22.31
2023-04-28T14:36:06.497Z,22.29
2023-04-28T14:38:36.685Z,22.20
2023-04-28T14:41:06.228Z,22.21
2023-04-28T14:43:34.116Z,22.27
2023-04-28T14:46:02.160Z,22.42
2023-04-28T14:48:30.139Z,22.58
2023-04-28T14:50:58.685Z,22.58
2023-04-28T14:53:26.653Z,22.53
2023-04-28T14:56:02.059Z,22.42
2023-04-28T14:58:39.000Z,22.24
2023-04-28T15:01:07.423Z,22.08
2023-04-28T15:03:35.921Z,21.93
2023-04-28T15:06:05.161Z,21.91
2023-04-28T15:08:33.287Z,21.85
2023-04-28T15:11:02.576Z,21.70
2023-04-28T15:13:30.553Z,21.58
2023-04-28T15:15:58.488Z,21.49
2023-04-28T15:18:26.386Z,21.37
2023-04-28T15:20:54.306Z,21.40
2023-04-28T15:23:22.255Z,21.48
2023-04-28T15:25:53.489Z,21.62
2023-04-28T15:28:23.657Z,21.77
2023-04-28T15:30:51.524Z,21.96
2023-04-28T15:33:19.644Z,22.16
2023-04-28T15:35:47.666Z,22.37
2023-04-28T15:38:16.259Z,22.52
2023-04-28T15:40:44.484Z,22.65
2023-04-28T15:43:13.373Z,23.03
2023-04-28T15:45:42.679Z,23.53
2023-04-28T15:48:12.176Z,23.85
2023-04-28T15:50:40.185Z,24.12
2023-04-28T15:53:08.106Z,24.69
2023-04-28T15:55:36.098Z,25.12
2023-04-28T15:58:04.223Z,25.05
2023-04-28T16:00:32.495Z,24.62
2023-04-28T16:03:02.213Z,23.95
2023-04-28T16:05:30.298Z,23.22
2023-04-28T16:07:58.190Z,22.54
2023-04-28T16:10:26.532Z,21.86
2023-04-28T16:12:54.432Z,21.41
2023-04-28T16:15:22.919Z,21.03
2023-04-28T16:17:51.996Z,20.74
2023-04-28T16:20:21.616Z,20.38
2023-04-28T16:22:49.541Z,20.13
2023-04-28T16:25:17.497Z,19.95
2023-04-28T16:27:45.378Z,19.83
2023-04-28T16:30:13.423Z,19.74
2023-04-28T16:32:41.702Z,19.66
2023-04-28T16:35:15.150Z,19.59
2023-04-28T16:37:44.741Z,19.55
2023-04-28T16:40:13.451Z,19.52
2023-04-28T16:42:42.134Z,19.54
2023-04-28T16:45:11.516Z,19.65
2023-04-28T16:47:42.464Z,20.52
2023-04-28T16:50:11.777Z,21.47
2023-04-28T16:52:39.793Z,22.24
2023-04-28T16:55:10.496Z,22.78
2023-04-28T16:57:38.423Z,23.22
2023-04-28T17:00:07.721Z,23.32
2023-04-28T17:02:35.981Z,23.40
2023-04-28T17:05:04.214Z,23.44
2023-04-28T17:07:32.109Z,23.55
2023-04-28T17:10:00.268Z,23.70
2023-04-28T17:12:29.606Z,23.35
2023-04-28T17:14:57.499Z,22.98
2023-04-28T17:17:25.942Z,22.90
2023-04-28T17:19:53.975Z,22.88
2023-04-28T17:22:22.252Z,22.90
2023-04-28T17:24:50.251Z,22.91
2023-04-28T17:27:18.118Z,22.97
2023-04-28T17:29:47.609Z,23.07
2023-04-28T17:32:15.753Z,22.88
2023-04-28T17:34:43.631Z,22.87
2023-04-28T17:37:11.543Z,22.56
2023-04-28T17:39:39.459Z,22.17
2023-04-28T17:42:07.446Z,21.75
2023-04-28T17:44:35.672Z,21.40
2023-04-28T17:47:05.001Z,21.16
2023-04-28T17:49:32.925Z,21.00
2023-04-28T17:52:00.890Z,20.72
2023-04-28T17:54:28.814Z,20.46
2023-04-28T17:56:57.219Z,20.20
2023-04-28T17:59:25.090Z,20.06
2023-04-28T18:01:56.139Z,19.97
2023-04-28T18:04:25.802Z,19.78
2023-04-28T18:06:53.684Z,19.57
2023-04-28T18:09:21.574Z,19.50
2023-04-28T18:11:49.440Z,19.45
2023-04-28T18:14:18.490Z,19.36
2023-04-28T18:16:46.642Z,19.22
2023-04-28T18:19:14.648Z,19.12
2023-04-28T18:21:43.888Z,18.99
2023-04-28T18:24:11.795Z,18.86
2023-04-28T18:26:39.709Z,18.72
2023-04-28T18:29:07.570Z,18.59
2023-04-28T18:31:35.457Z,18.43
2023-04-28T18:34:03.953Z,18.27
2023-04-28T18:36:33.091Z,18.10
2023-04-28T18:39:03.514Z,17.96
2023-04-28T18:41:32.334Z,17.85
2023-04-28T18:44:01.325Z,17.76
2023-04-28T18:46:29.531Z,17.70
2023-04-28T18:48:57.618Z,17.63
2023-04-28T18:51:25.584Z,17.55
2023-04-28T18:53:53.473Z,17.48
2023-04-28T18:56:23.728Z,17.41
2023-04-28T18:58:51.812Z,17.39
2023-04-28T19:01:19.961Z,17.36
2023-04-28T19:03:47.998Z,17.36
2023-04-28T19:06:17.494Z,17.36
2023-04-28T19:08:45.400Z,17.40
2023-04-28T19:11:13.245Z,17.42
2023-04-28T19:13:44.605Z,17.47
2023-04-28T19:16:12.710Z,17.48
2023-04-28T19:18:42.023Z,17.48
2023-04-28T19:21:12.143Z,17.47
2023-04-28T19:23:40.865Z,17.45
2023-04-28T19:26:09.086Z,17.45
2023-04-28T19:28:37.039Z,17.44
2023-04-28T19:31:06.388Z,17.45
2023-04-28T19:33:34.283Z,17.46
2023-04-28T19:36:05.282Z,17.45
2023-04-28T19:38:34.542Z,17.48
2023-04-28T19:41:02.545Z,17.48
2023-04-28T19:43:30.726Z,17.51
2023-04-28T19:45:58.712Z,17.50
2023-04-28T19:48:27.977Z,17.48
2023-04-28T19:50:56.420Z,17.46
2023-04-28T19:53:24.300Z,17.46
2023-04-28T19:55:52.226Z,17.47
2023-04-28T19:58:20.811Z,17.45
2023-04-28T20:00:48.940Z,17.46
2023-04-28T20:03:17.359Z,17.47
2023-04-28T20:05:47.109Z,17.49
2023-04-28T20:08:14.986Z,17.52
2023-04-28T20:10:43.011Z,17.56
2023-04-28T20:13:10.891Z,17.63
2023-04-28T20:15:39.146Z,17.67
2023-04-28T20:18:07.100Z,17.71
2023-04-28T20:20:35.027Z,17.74
2023-04-28T20:23:04.328Z,17.76
2023-04-28T20:25:32.197Z,17.75
2023-04-28T20:28:00.156Z,17.73
2023-04-28T20:30:28.400Z,17.73
2023-04-28T20:32:56.375Z,17.73
2023-04-28T20:35:24.551Z,17.74
2023-04-28T20:37:52.780Z,17.73
2023-04-28T20:40:22.835Z,17.70
2023-04-28T20:42:50.862Z,17.69
2023-04-28T20:45:19.427Z,17.71
2023-04-28T20:47:47.470Z,17.75
2023-04-28T20:50:15.655Z,17.75
2023-04-28T20:52:43.504Z,17.75
2023-04-28T20:55:11.547Z,17.73
2023-04-28T20:57:40.816Z,17.72
2023-04-28T21:00:10.674Z,17.70
2023-04-28T21:02:38.764Z,17.70
2023-04-28T21:05:07.318Z,17.72
2023-04-28T21:07:35.224Z,17.76
2023-04-28T21:10:03.101Z,17.78
2023-04-28T21:12:30.970Z,17.77
2023-04-28T21:15:00.885Z,17.78
2023-04-28T21:17:28.783Z,17.80
2023-04-28T21:19:57.406Z,17.81
2023-04-28T21:22:26.222Z,17.82
2023-04-28T21:24:54.558Z,17.82
2023-04-28T21:27:22.434Z,17.83
2023-04-28T21:29:50.622Z,17.83
2023-04-28T21:32:20.318Z,17.83
2023-04-28T21:34:49.634Z,17.83
2023-04-28T21:37:17.757Z,17.78
2023-04-28T21:39:45.643Z,17.71
2023-04-28T21:42:13.526Z,17.56
2023-04-28T21:44:41.871Z,17.46
2023-04-28T21:47:09.817Z,17.38
2023-04-28T21:49:39.139Z,17.31
2023-04-28T21:52:07.470Z,17.22
2023-04-28T21:54:35.800Z,17.12
2023-04-28T21:57:03.740Z,17.03
2023-04-28T21:59:31.615Z,16.97
2023-04-28T22:01:59.625Z,16.90
2023-04-28T22:04:27.839Z,16.83
2023-04-28T22:06:57.276Z,16.76
2023-04-28T22:09:25.131Z,16.70
2023-04-28T22:11:53.110Z,16.64
2023-04-28T22:14:35.623Z,16.58
2023-04-28T22:17:08.069Z,16.53
2023-04-28T22:19:36.037Z,16.51
2023-04-28T22:22:05.476Z,16.45
2023-04-28T22:24:33.460Z,16.40
2023-04-28T22:27:01.292Z,16.35
2023-04-28T22:29:29.761Z,16.28
2023-04-28T22:31:58.700Z,16.22
2023-04-28T22:34:26.658Z,16.14
2023-04-28T22:36:54.514Z,16.07
2023-04-28T22:39:25.135Z,16.02
2023-04-28T22:41:53.154Z,16.00
2023-04-28T22:44:21.160Z,15.89
2023-04-28T22:46:49.152Z,15.93
2023-04-28T22:49:17.142Z,15.85
2023-04-28T22:51:45.007Z,15.83
2023-04-28T22:54:13.746Z,15.79
2023-04-28T22:56:43.014Z,15.73
2023-04-28T22:59:10.827Z,15.68
2023-04-28T23:01:40.040Z,15.64
2023-04-28T23:04:08.249Z,15.60
2023-04-28T23:06:36.267Z,15.57
2023-04-28T23:09:04.731Z,15.52
2023-04-28T23:11:32.589Z,15.48
2023-04-28T23:14:02.026Z,15.42
2023-04-28T23:16:29.988Z,15.42
2023-04-28T23:18:57.923Z,15.39
2023-04-28T23:21:26.352Z,15.42
2023-04-28T23:23:54.214Z,15.47
2023-04-28T23:26:22.104Z,15.54
2023-04-28T23:28:49.992Z,15.63
2023-04-28T23:31:19.410Z,15.71
2023-04-28T23:33:47.284Z,15.77
2023-04-28T23:36:15.185Z,15.85
2023-04-28T23:38:43.044Z,15.93
2023-04-28T23:41:10.993Z,16.01
2023-04-28T23:43:38.929Z,16.10
2023-04-28T23:46:06.997Z,16.20
2023-04-28T23:48:36.558Z,16.25
2023-04-28T23:51:04.409Z,16.34
2023-04-28T23:53:32.248Z,16.41
2023-04-28T23:56:00.124Z,16.46
2023-04-28T23:58:27.976Z,16.49
